sensor_id;sensor_type;location;lat;lon;timestamp;temperature;humidity
17715;DHT22;8977;50.902;4.314;2022-11-15T00:00:48;13.30;99.90
17715;DHT22;8977;50.902;4.314;2022-11-15T00:03:16;13.30;99.90
17715;DHT22;8977;50.902;4.314;2022-11-15T00:05:45;13.40;99.90
17715;DHT22;8977;50.902;4.314;2022-11-15T00:08:12;13.40;99.90
17715;DHT22;8977;50.902;4.314;2022-11-15T00:10:39;13.40;99.90
17715;DHT22;8977;50.902;4.314;2022-11-15T00:13:09;13.40;99.90
17715;DHT22;8977;50.902;4.314;2022-11-15T00:15:37;13.40;99.90
17715;DHT22;8977;50.902;4.314;2022-11-15T00:18:05;13.40;99.90
17715;DHT22;8977;50.902;4.314;2022-11-15T00:20:33;13.40;99.90
17715;DHT22;8977;50.902;4.314;2022-11-15T00:23:03;13.40;99.90
17715;DHT22;8977;50.902;4.314;2022-11-15T00:25:30;13.40;99.90
17715;DHT22;8977;50.902;4.314;2022-11-15T00:27:57;13.40;99.90
17715;DHT22;8977;50.902;4.314;2022-11-15T00:30:30;13.40;99.90
17715;DHT22;8977;50.902;4.314;2022-11-15T00:33:08;13.40;99.90
17715;DHT22;8977;50.902;4.314;2022-11-15T00:35:40;13.50;99.90
17715;DHT22;8977;50.902;4.314;2022-11-15T00:38:17;13.40;99.90
17715;DHT22;8977;50.902;4.314;2022-11-15T00:40:50;13.50;99.90
17715;DHT22;8977;50.902;4.314;2022-11-15T00:43:16;13.40;99.90
17715;DHT22;8977;50.902;4.314;2022-11-15T00:46:00;13.50;99.90
17715;DHT22;8977;50.902;4.314;2022-11-15T00:48:31;13.50;99.90
17715;DHT22;8977;50.902;4.314;2022-11-15T00:51:03;13.40;99.90
17715;DHT22;8977;50.902;4.314;2022-11-15T00:53:34;13.50;99.90
17715;DHT22;8977;50.902;4.314;2022-11-15T00:56:01;13.50;99.90
17715;DHT22;8977;50.902;4.314;2022-11-15T00:58:28;13.50;99.90
17715;DHT22;8977;50.902;4.314;2022-11-15T01:01:05;13.50;99.90
17715;DHT22;8977;50.902;4.314;2022-11-15T01:03:32;13.50;99.90
17715;DHT22;8977;50.902;4.314;2022-11-15T01:06:00;13.50;99.90
17715;DHT22;8977;50.902;4.314;2022-11-15T01:08:27;13.50;99.90
17715;DHT22;8977;50.902;4.314;2022-11-15T01:11:00;13.50;99.90
17715;DHT22;8977;50.902;4.314;2022-11-15T01:13:30;13.50;99.90
17715;DHT22;8977;50.902;4.314;2022-11-15T01:15:57;13.50;99.90
17715;DHT22;8977;50.902;4.314;2022-11-15T01:18:24;13.50;99.90
17715;DHT22;8977;50.902;4.314;2022-11-15T01:20:58;13.50;99.90
17715;DHT22;8977;50.902;4.314;2022-11-15T01:23:28;13.50;99.90
17715;DHT22;8977;50.902;4.314;2022-11-15T01:26:00;13.50;99.90
17715;DHT22;8977;50.902;4.314;2022-11-15T01:28:30;13.60;99.90
17715;DHT22;8977;50.902;4.314;2022-11-15T01:30:58;13.50;99.90
17715;DHT22;8977;50.902;4.314;2022-11-15T01:33:24;13.50;99.90
17715;DHT22;8977;50.902;4.314;2022-11-15T01:35:51;13.50;99.90
17715;DHT22;8977;50.902;4.314;2022-11-15T01:38:18;13.50;99.90
17715;DHT22;8977;50.902;4.314;2022-11-15T01:40:48;13.50;99.90
17715;DHT22;8977;50.902;4.314;2022-11-15T01:43:25;13.50;99.90
17715;DHT22;8977;50.902;4.314;2022-11-15T01:45:55;13.50;99.90
17715;DHT22;8977;50.902;4.314;2022-11-15T01:48:27;13.60;99.90
17715;DHT22;8977;50.902;4.314;2022-11-15T01:50:55;13.50;99.90
17715;DHT22;8977;50.902;4.314;2022-11-15T01:53:23;13.60;99.90
17715;DHT22;8977;50.902;4.314;2022-11-15T01:55:52;13.60;99.90
17715;DHT22;8977;50.902;4.314;2022-11-15T01:58:19;13.60;99.90
17715;DHT22;8977;50.902;4.314;2022-11-15T02:00:48;13.60;99.90
17715;DHT22;8977;50.902;4.314;2022-11-15T02:03:16;13.50;99.90
17715;DHT22;8977;50.902;4.314;2022-11-15T02:05:44;13.60;99.90
17715;DHT22;8977;50.902;4.314;2022-11-15T02:08:11;13.50;99.90
17715;DHT22;8977;50.902;4.314;2022-11-15T02:10:45;13.60;99.90
17715;DHT22;8977;50.902;4.314;2022-11-15T02:13:13;13.60;99.90
17715;DHT22;8977;50.902;4.314;2022-11-15T02:15:47;13.50;99.90
17715;DHT22;8977;50.902;4.314;2022-11-15T02:18:24;13.50;99.90
17715;DHT22;8977;50.902;4.314;2022-11-15T02:21:03;13.50;99.90
17715;DHT22;8977;50.902;4.314;2022-11-15T02:27:08;13.60;99.90
17715;DHT22;8977;50.902;4.314;2022-11-15T02:30:00;13.60;99.90
17715;DHT22;8977;50.902;4.314;2022-11-15T02:32:35;13.60;99.90
17715;DHT22;8977;50.902;4.314;2022-11-15T02:35:13;13.60;99.90
17715;DHT22;8977;50.902;4.314;2022-11-15T02:37:45;13.60;99.90
17715;DHT22;8977;50.902;4.314;2022-11-15T02:40:20;13.60;99.90
17715;DHT22;8977;50.902;4.314;2022-11-15T02:42:51;13.60;99.90
17715;DHT22;8977;50.902;4.314;2022-11-15T02:45:40;13.60;99.90
17715;DHT22;8977;50.902;4.314;2022-11-15T02:48:10;13.60;99.90
17715;DHT22;8977;50.902;4.314;2022-11-15T02:50:37;13.60;99.90
17715;DHT22;8977;50.902;4.314;2022-11-15T02:53:05;13.60;99.90
17715;DHT22;8977;50.902;4.314;2022-11-15T02:55:35;13.60;99.90
17715;DHT22;8977;50.902;4.314;2022-11-15T02:58:15;13.60;99.90
17715;DHT22;8977;50.902;4.314;2022-11-15T03:00:48;13.60;99.90
17715;DHT22;8977;50.902;4.314;2022-11-15T03:03:43;13.60;99.90
17715;DHT22;8977;50.902;4.314;2022-11-15T03:06:20;13.60;99.90
17715;DHT22;8977;50.902;4.314;2022-11-15T03:08:57;13.60;99.90
17715;DHT22;8977;50.902;4.314;2022-11-15T03:11:25;13.60;99.90
17715;DHT22;8977;50.902;4.314;2022-11-15T03:13:57;13.60;99.90
17715;DHT22;8977;50.902;4.314;2022-11-15T03:16:30;13.60;99.90
17715;DHT22;8977;50.902;4.314;2022-11-15T03:19:06;13.60;99.90
17715;DHT22;8977;50.902;4.314;2022-11-15T03:21:35;13.60;99.90
17715;DHT22;8977;50.902;4.314;2022-11-15T03:24:05;13.60;99.90
17715;DHT22;8977;50.902;4.314;2022-11-15T03:26:33;13.60;99.90
17715;DHT22;8977;50.902;4.314;2022-11-15T03:29:06;13.60;99.90
17715;DHT22;8977;50.902;4.314;2022-11-15T03:31:37;13.60;99.90
17715;DHT22;8977;50.902;4.314;2022-11-15T03:34:22;13.60;99.90
17715;DHT22;8977;50.902;4.314;2022-11-15T03:36:51;13.60;99.90
17715;DHT22;8977;50.902;4.314;2022-11-15T03:39:19;13.60;99.90
17715;DHT22;8977;50.902;4.314;2022-11-15T03:41:49;13.60;99.90
17715;DHT22;8977;50.902;4.314;2022-11-15T03:44:23;13.60;99.90
17715;DHT22;8977;50.902;4.314;2022-11-15T03:46:58;13.60;99.90
17715;DHT22;8977;50.902;4.314;2022-11-15T03:49:32;13.60;99.90
17715;DHT22;8977;50.902;4.314;2022-11-15T03:52:00;13.60;99.90
17715;DHT22;8977;50.902;4.314;2022-11-15T03:54:28;13.60;99.90
17715;DHT22;8977;50.902;4.314;2022-11-15T03:56:55;13.50;99.90
17715;DHT22;8977;50.902;4.314;2022-11-15T03:59:21;13.50;99.90
17715;DHT22;8977;50.902;4.314;2022-11-15T04:01:48;13.50;99.90
17715;DHT22;8977;50.902;4.314;2022-11-15T04:04:15;13.60;99.90
17715;DHT22;8977;50.902;4.314;2022-11-15T04:06:43;13.60;99.90
17715;DHT22;8977;50.902;4.314;2022-11-15T04:09:10;13.50;99.90
17715;DHT22;8977;50.902;4.314;2022-11-15T04:11:39;13.50;99.90
17715;DHT22;8977;50.902;4.314;2022-11-15T04:14:06;13.50;99.90
17715;DHT22;8977;50.902;4.314;2022-11-15T04:16:33;13.60;99.90
17715;DHT22;8977;50.902;4.314;2022-11-15T04:18:59;13.60;99.90
17715;DHT22;8977;50.902;4.314;2022-11-15T04:21:45;13.60;99.90
17715;DHT22;8977;50.902;4.314;2022-11-15T04:24:29;13.60;99.90
17715;DHT22;8977;50.902;4.314;2022-11-15T04:26:56;13.60;99.90
17715;DHT22;8977;50.902;4.314;2022-11-15T04:29:23;13.60;99.90
17715;DHT22;8977;50.902;4.314;2022-11-15T04:32:02;13.50;99.90
17715;DHT22;8977;50.902;4.314;2022-11-15T04:34:29;13.60;99.90
17715;DHT22;8977;50.902;4.314;2022-11-15T04:36:59;13.50;99.90
17715;DHT22;8977;50.902;4.314;2022-11-15T04:39:41;13.50;99.90
17715;DHT22;8977;50.902;4.314;2022-11-15T04:42:08;13.60;99.90
17715;DHT22;8977;50.902;4.314;2022-11-15T04:44:36;13.50;99.90
17715;DHT22;8977;50.902;4.314;2022-11-15T04:47:03;13.50;99.90
17715;DHT22;8977;50.902;4.314;2022-11-15T04:49:30;13.50;99.90
17715;DHT22;8977;50.902;4.314;2022-11-15T04:51:56;13.50;99.90
17715;DHT22;8977;50.902;4.314;2022-11-15T04:54:24;13.50;99.90
17715;DHT22;8977;50.902;4.314;2022-11-15T04:56:51;13.50;99.90
17715;DHT22;8977;50.902;4.314;2022-11-15T04:59:18;13.50;99.90
17715;DHT22;8977;50.902;4.314;2022-11-15T05:01:45;13.50;99.90
17715;DHT22;8977;50.902;4.314;2022-11-15T05:04:12;13.50;99.90
17715;DHT22;8977;50.902;4.314;2022-11-15T05:06:48;13.50;99.90
17715;DHT22;8977;50.902;4.314;2022-11-15T05:09:18;13.50;99.90
17715;DHT22;8977;50.902;4.314;2022-11-15T05:11:47;13.50;99.90
17715;DHT22;8977;50.902;4.314;2022-11-15T05:14:14;13.50;99.90
17715;DHT22;8977;50.902;4.314;2022-11-15T05:16:41;13.50;99.90
17715;DHT22;8977;50.902;4.314;2022-11-15T05:19:08;13.50;99.90
17715;DHT22;8977;50.902;4.314;2022-11-15T05:21:35;13.40;99.90
17715;DHT22;8977;50.902;4.314;2022-11-15T05:24:03;13.50;99.90
17715;DHT22;8977;50.902;4.314;2022-11-15T05:26:33;13.40;99.90
17715;DHT22;8977;50.902;4.314;2022-11-15T05:29:13;13.40;99.90
17715;DHT22;8977;50.902;4.314;2022-11-15T05:31:45;13.40;99.90
17715;DHT22;8977;50.902;4.314;2022-11-15T05:34:18;13.40;99.90
17715;DHT22;8977;50.902;4.314;2022-11-15T05:36:47;13.40;99.90
17715;DHT22;8977;50.902;4.314;2022-11-15T05:39:14;13.30;99.90
17715;DHT22;8977;50.902;4.314;2022-11-15T05:41:42;13.30;99.90
17715;DHT22;8977;50.902;4.314;2022-11-15T05:44:17;13.40;99.90
17715;DHT22;8977;50.902;4.314;2022-11-15T05:46:46;13.40;99.90
17715;DHT22;8977;50.902;4.314;2022-11-15T05:49:19;13.40;99.90
17715;DHT22;8977;50.902;4.314;2022-11-15T05:51:50;13.40;99.90
17715;DHT22;8977;50.902;4.314;2022-11-15T05:54:21;13.40;99.90
17715;DHT22;8977;50.902;4.314;2022-11-15T05:56:48;13.30;99.90
17715;DHT22;8977;50.902;4.314;2022-11-15T05:59:17;13.40;99.90
17715;DHT22;8977;50.902;4.314;2022-11-15T06:01:45;13.40;99.90
17715;DHT22;8977;50.902;4.314;2022-11-15T06:04:11;13.40;99.90
17715;DHT22;8977;50.902;4.314;2022-11-15T06:06:38;13.40;99.90
17715;DHT22;8977;50.902;4.314;2022-11-15T06:09:05;13.40;99.90
17715;DHT22;8977;50.902;4.314;2022-11-15T06:11:32;13.40;99.90
17715;DHT22;8977;50.902;4.314;2022-11-15T06:13:59;13.50;99.90
17715;DHT22;8977;50.902;4.314;2022-11-15T06:16:27;13.30;99.90
17715;DHT22;8977;50.902;4.314;2022-11-15T06:18:54;13.30;99.90
17715;DHT22;8977;50.902;4.314;2022-11-15T06:21:21;13.30;99.90
17715;DHT22;8977;50.902;4.314;2022-11-15T06:23:48;13.20;99.90
17715;DHT22;8977;50.902;4.314;2022-11-15T06:26:15;13.20;99.90
17715;DHT22;8977;50.902;4.314;2022-11-15T06:28:42;13.20;99.90
17715;DHT22;8977;50.902;4.314;2022-11-15T06:31:11;13.20;99.90
17715;DHT22;8977;50.902;4.314;2022-11-15T06:33:40;13.20;99.90
17715;DHT22;8977;50.902;4.314;2022-11-15T06:36:08;13.20;99.90
17715;DHT22;8977;50.902;4.314;2022-11-15T06:38:36;13.20;99.90
17715;DHT22;8977;50.902;4.314;2022-11-15T06:41:07;13.20;99.90
17715;DHT22;8977;50.902;4.314;2022-11-15T06:43:36;13.20;99.90
17715;DHT22;8977;50.902;4.314;2022-11-15T06:46:04;13.20;99.90
17715;DHT22;8977;50.902;4.314;2022-11-15T06:48:32;13.20;99.90
17715;DHT22;8977;50.902;4.314;2022-11-15T06:51:02;13.20;99.90
17715;DHT22;8977;50.902;4.314;2022-11-15T06:53:30;13.30;99.90
17715;DHT22;8977;50.902;4.314;2022-11-15T06:55:59;13.30;99.90
17715;DHT22;8977;50.902;4.314;2022-11-15T06:58:27;13.30;99.90
17715;DHT22;8977;50.902;4.314;2022-11-15T07:00:57;13.20;99.90
17715;DHT22;8977;50.902;4.314;2022-11-15T07:03:24;13.20;99.90
17715;DHT22;8977;50.902;4.314;2022-11-15T07:05:52;13.20;99.90
17715;DHT22;8977;50.902;4.314;2022-11-15T07:08:21;13.20;99.90
17715;DHT22;8977;50.902;4.314;2022-11-15T07:10:49;13.20;99.90
17715;DHT22;8977;50.902;4.314;2022-11-15T07:13:16;13.20;99.90
17715;DHT22;8977;50.902;4.314;2022-11-15T07:15:43;13.20;99.90
17715;DHT22;8977;50.902;4.314;2022-11-15T07:18:10;13.20;99.90
17715;DHT22;8977;50.902;4.314;2022-11-15T07:20:37;13.30;99.90
17715;DHT22;8977;50.902;4.314;2022-11-15T07:23:05;13.20;99.90
17715;DHT22;8977;50.902;4.314;2022-11-15T07:25:33;13.20;99.90
17715;DHT22;8977;50.902;4.314;2022-11-15T07:28:00;13.20;99.90
17715;DHT22;8977;50.902;4.314;2022-11-15T07:30:28;13.20;99.90
17715;DHT22;8977;50.902;4.314;2022-11-15T07:32:55;13.20;99.90
17715;DHT22;8977;50.902;4.314;2022-11-15T07:35:23;13.20;99.90
17715;DHT22;8977;50.902;4.314;2022-11-15T07:37:54;13.20;99.90
17715;DHT22;8977;50.902;4.314;2022-11-15T07:40:21;13.20;99.90
17715;DHT22;8977;50.902;4.314;2022-11-15T07:42:50;13.20;99.90
17715;DHT22;8977;50.902;4.314;2022-11-15T07:45:21;13.20;99.90
17715;DHT22;8977;50.902;4.314;2022-11-15T07:47:49;13.20;99.90
17715;DHT22;8977;50.902;4.314;2022-11-15T07:50:16;13.20;99.90
17715;DHT22;8977;50.902;4.314;2022-11-15T07:52:43;13.20;99.90
17715;DHT22;8977;50.902;4.314;2022-11-15T07:55:10;13.20;99.90
17715;DHT22;8977;50.902;4.314;2022-11-15T07:57:37;13.20;99.90
17715;DHT22;8977;50.902;4.314;2022-11-15T08:00:07;13.30;99.90
17715;DHT22;8977;50.902;4.314;2022-11-15T08:02:34;13.20;99.90
17715;DHT22;8977;50.902;4.314;2022-11-15T08:05:01;13.20;99.90
17715;DHT22;8977;50.902;4.314;2022-11-15T08:07:29;13.20;99.90
17715;DHT22;8977;50.902;4.314;2022-11-15T08:09:56;13.20;99.90
17715;DHT22;8977;50.902;4.314;2022-11-15T08:12:23;13.20;99.90
17715;DHT22;8977;50.902;4.314;2022-11-15T08:14:50;13.20;99.90
17715;DHT22;8977;50.902;4.314;2022-11-15T08:17:18;13.20;99.90
17715;DHT22;8977;50.902;4.314;2022-11-15T08:19:45;13.20;99.90
17715;DHT22;8977;50.902;4.314;2022-11-15T08:22:12;13.30;99.90
17715;DHT22;8977;50.902;4.314;2022-11-15T08:24:38;13.30;99.90
17715;DHT22;8977;50.902;4.314;2022-11-15T08:27:06;13.30;99.90
17715;DHT22;8977;50.902;4.314;2022-11-15T08:29:41;13.20;99.90
17715;DHT22;8977;50.902;4.314;2022-11-15T08:32:08;13.20;99.90
17715;DHT22;8977;50.902;4.314;2022-11-15T08:34:36;13.20;99.90
17715;DHT22;8977;50.902;4.314;2022-11-15T08:37:03;13.30;99.90
17715;DHT22;8977;50.902;4.314;2022-11-15T08:39:31;13.30;99.90
17715;DHT22;8977;50.902;4.314;2022-11-15T08:41:58;13.30;99.90
17715;DHT22;8977;50.902;4.314;2022-11-15T08:44:25;13.30;99.90
17715;DHT22;8977;50.902;4.314;2022-11-15T08:46:54;13.30;99.90
17715;DHT22;8977;50.902;4.314;2022-11-15T08:49:21;13.30;99.90
17715;DHT22;8977;50.902;4.314;2022-11-15T08:51:49;13.30;99.90
17715;DHT22;8977;50.902;4.314;2022-11-15T08:54:16;13.40;99.90
17715;DHT22;8977;50.902;4.314;2022-11-15T08:56:43;13.30;99.90
17715;DHT22;8977;50.902;4.314;2022-11-15T08:59:10;13.30;99.90
17715;DHT22;8977;50.902;4.314;2022-11-15T09:01:36;13.40;99.90
17715;DHT22;8977;50.902;4.314;2022-11-15T09:04:03;13.40;99.90
17715;DHT22;8977;50.902;4.314;2022-11-15T09:06:30;13.40;99.90
17715;DHT22;8977;50.902;4.314;2022-11-15T09:09:00;13.40;99.90
17715;DHT22;8977;50.902;4.314;2022-11-15T09:11:27;13.40;99.90
17715;DHT22;8977;50.902;4.314;2022-11-15T09:13:54;13.40;99.90
17715;DHT22;8977;50.902;4.314;2022-11-15T09:16:21;13.40;99.90
17715;DHT22;8977;50.902;4.314;2022-11-15T09:18:50;13.40;99.90
17715;DHT22;8977;50.902;4.314;2022-11-15T09:21:17;13.40;99.90
17715;DHT22;8977;50.902;4.314;2022-11-15T09:23:46;13.40;99.90
17715;DHT22;8977;50.902;4.314;2022-11-15T09:26:15;13.40;99.90
17715;DHT22;8977;50.902;4.314;2022-11-15T09:28:42;13.50;99.90
17715;DHT22;8977;50.902;4.314;2022-11-15T09:31:13;13.50;99.90
17715;DHT22;8977;50.902;4.314;2022-11-15T09:33:40;13.50;99.90
17715;DHT22;8977;50.902;4.314;2022-11-15T09:36:12;13.50;99.90
17715;DHT22;8977;50.902;4.314;2022-11-15T09:38:39;13.60;99.90
17715;DHT22;8977;50.902;4.314;2022-11-15T09:41:33;13.60;99.90
17715;DHT22;8977;50.902;4.314;2022-11-15T09:44:11;13.60;99.90
17715;DHT22;8977;50.902;4.314;2022-11-15T09:46:48;13.60;99.90
17715;DHT22;8977;50.902;4.314;2022-11-15T09:49:17;13.70;99.90
17715;DHT22;8977;50.902;4.314;2022-11-15T09:51:47;13.70;99.90
17715;DHT22;8977;50.902;4.314;2022-11-15T09:54:23;13.70;99.90
17715;DHT22;8977;50.902;4.314;2022-11-15T09:57:04;13.80;99.90
17715;DHT22;8977;50.902;4.314;2022-11-15T09:59:51;13.80;99.90
17715;DHT22;8977;50.902;4.314;2022-11-15T10:02:33;13.80;99.90
17715;DHT22;8977;50.902;4.314;2022-11-15T10:05:09;13.90;99.90
17715;DHT22;8977;50.902;4.314;2022-11-15T10:07:42;14.00;99.90
17715;DHT22;8977;50.902;4.314;2022-11-15T10:10:15;14.00;99.90
17715;DHT22;8977;50.902;4.314;2022-11-15T10:12:47;14.00;99.90
17715;DHT22;8977;50.902;4.314;2022-11-15T10:15:16;14.10;99.90
17715;DHT22;8977;50.902;4.314;2022-11-15T10:18:06;14.10;99.90
17715;DHT22;8977;50.902;4.314;2022-11-15T10:20:41;14.20;99.90
17715;DHT22;8977;50.902;4.314;2022-11-15T10:23:13;14.20;99.90
17715;DHT22;8977;50.902;4.314;2022-11-15T10:25:41;14.30;99.90
17715;DHT22;8977;50.902;4.314;2022-11-15T10:28:14;14.30;99.90
17715;DHT22;8977;50.902;4.314;2022-11-15T10:30:43;14.30;99.90
17715;DHT22;8977;50.902;4.314;2022-11-15T10:33:20;14.40;99.90
17715;DHT22;8977;50.902;4.314;2022-11-15T10:36:18;14.40;99.90
17715;DHT22;8977;50.902;4.314;2022-11-15T10:38:54;14.30;99.90
17715;DHT22;8977;50.902;4.314;2022-11-15T10:41:30;14.30;99.90
17715;DHT22;8977;50.902;4.314;2022-11-15T10:44:23;14.30;99.90
17715;DHT22;8977;50.902;4.314;2022-11-15T10:47:06;14.40;99.90
17715;DHT22;8977;50.902;4.314;2022-11-15T10:49:34;14.30;99.90
17715;DHT22;8977;50.902;4.314;2022-11-15T10:52:03;14.30;99.90
17715;DHT22;8977;50.902;4.314;2022-11-15T10:54:34;14.40;99.90
17715;DHT22;8977;50.902;4.314;2022-11-15T10:57:07;14.30;99.90
17715;DHT22;8977;50.902;4.314;2022-11-15T10:59:37;14.30;99.90
17715;DHT22;8977;50.902;4.314;2022-11-15T11:02:29;14.30;99.90
17715;DHT22;8977;50.902;4.314;2022-11-15T11:04:56;14.30;99.90
17715;DHT22;8977;50.902;4.314;2022-11-15T11:07:25;14.30;99.90
17715;DHT22;8977;50.902;4.314;2022-11-15T11:09:58;14.30;99.90
17715;DHT22;8977;50.902;4.314;2022-11-15T11:12:31;14.30;99.90
17715;DHT22;8977;50.902;4.314;2022-11-15T11:15:01;14.30;99.90
17715;DHT22;8977;50.902;4.314;2022-11-15T11:17:53;14.30;99.90
17715;DHT22;8977;50.902;4.314;2022-11-15T11:20:27;14.40;99.90
17715;DHT22;8977;50.902;4.314;2022-11-15T11:23:12;14.40;99.90
17715;DHT22;8977;50.902;4.314;2022-11-15T11:25:46;14.50;99.90
17715;DHT22;8977;50.902;4.314;2022-11-15T11:28:25;14.50;99.90
17715;DHT22;8977;50.902;4.314;2022-11-15T11:31:04;14.50;99.90
17715;DHT22;8977;50.902;4.314;2022-11-15T11:33:39;14.50;99.90
17715;DHT22;8977;50.902;4.314;2022-11-15T11:36:18;14.50;99.90
17715;DHT22;8977;50.902;4.314;2022-11-15T11:39:02;14.50;99.90
17715;DHT22;8977;50.902;4.314;2022-11-15T11:41:46;14.50;99.90
17715;DHT22;8977;50.902;4.314;2022-11-15T11:44:28;14.50;99.90
17715;DHT22;8977;50.902;4.314;2022-11-15T11:47:00;14.50;99.90
17715;DHT22;8977;50.902;4.314;2022-11-15T11:49:33;14.50;99.90
17715;DHT22;8977;50.902;4.314;2022-11-15T11:52:05;14.50;99.90
17715;DHT22;8977;50.902;4.314;2022-11-15T11:54:41;14.50;99.90
17715;DHT22;8977;50.902;4.314;2022-11-15T11:57:13;14.50;99.90
17715;DHT22;8977;50.902;4.314;2022-11-15T11:59:45;14.50;99.90
17715;DHT22;8977;50.902;4.314;2022-11-15T12:02:18;14.50;99.90
17715;DHT22;8977;50.902;4.314;2022-11-15T12:04:50;14.50;99.90
17715;DHT22;8977;50.902;4.314;2022-11-15T12:07:21;14.50;99.90
17715;DHT22;8977;50.902;4.314;2022-11-15T12:09:53;14.40;99.90
17715;DHT22;8977;50.902;4.314;2022-11-15T12:12:31;14.50;99.90
17715;DHT22;8977;50.902;4.314;2022-11-15T12:15:02;14.50;99.90
17715;DHT22;8977;50.902;4.314;2022-11-15T12:17:32;14.50;99.90
17715;DHT22;8977;50.902;4.314;2022-11-15T12:20:00;14.50;99.90
17715;DHT22;8977;50.902;4.314;2022-11-15T12:22:36;14.50;99.90
17715;DHT22;8977;50.902;4.314;2022-11-15T12:25:08;14.50;99.90
17715;DHT22;8977;50.902;4.314;2022-11-15T12:27:44;14.40;99.90
17715;DHT22;8977;50.902;4.314;2022-11-15T12:30:14;14.40;99.90
17715;DHT22;8977;50.902;4.314;2022-11-15T12:32:51;14.40;99.90
17715;DHT22;8977;50.902;4.314;2022-11-15T12:35:34;14.40;99.90
17715;DHT22;8977;50.902;4.314;2022-11-15T12:38:03;14.50;99.90
17715;DHT22;8977;50.902;4.314;2022-11-15T12:40:35;14.40;99.90
17715;DHT22;8977;50.902;4.314;2022-11-15T12:43:37;14.40;99.90
17715;DHT22;8977;50.902;4.314;2022-11-15T12:46:05;14.50;99.90
17715;DHT22;8977;50.902;4.314;2022-11-15T12:48:59;14.50;99.90
17715;DHT22;8977;50.902;4.314;2022-11-15T12:54:55;14.50;99.90
17715;DHT22;8977;50.902;4.314;2022-11-15T12:57:35;14.50;99.90
17715;DHT22;8977;50.902;4.314;2022-11-15T13:03:24;14.50;99.90
17715;DHT22;8977;50.902;4.314;2022-11-15T13:06:07;14.50;99.90
17715;DHT22;8977;50.902;4.314;2022-11-15T13:08:49;14.50;99.90
17715;DHT22;8977;50.902;4.314;2022-11-15T13:11:42;14.50;99.90
17715;DHT22;8977;50.902;4.314;2022-11-15T13:14:41;14.60;99.90
17715;DHT22;8977;50.902;4.314;2022-11-15T13:17:29;14.60;99.90
17715;DHT22;8977;50.902;4.314;2022-11-15T13:20:09;14.60;99.90
17715;DHT22;8977;50.902;4.314;2022-11-15T13:22:44;14.50;99.90
17715;DHT22;8977;50.902;4.314;2022-11-15T13:28:03;14.50;99.90
17715;DHT22;8977;50.902;4.314;2022-11-15T13:30:38;14.60;99.90
17715;DHT22;8977;50.902;4.314;2022-11-15T13:33:08;14.50;99.90
17715;DHT22;8977;50.902;4.314;2022-11-15T13:35:39;14.60;99.90
17715;DHT22;8977;50.902;4.314;2022-11-15T13:38:18;14.60;99.90
17715;DHT22;8977;50.902;4.314;2022-11-15T13:40:45;14.60;99.90
17715;DHT22;8977;50.902;4.314;2022-11-15T13:43:23;14.60;99.90
17715;DHT22;8977;50.902;4.314;2022-11-15T13:46:07;14.50;99.90
17715;DHT22;8977;50.902;4.314;2022-11-15T13:48:37;14.60;99.90
17715;DHT22;8977;50.902;4.314;2022-11-15T13:51:06;14.60;99.90
17715;DHT22;8977;50.902;4.314;2022-11-15T13:53:38;14.60;99.90
17715;DHT22;8977;50.902;4.314;2022-11-15T13:56:06;14.60;99.90
17715;DHT22;8977;50.902;4.314;2022-11-15T13:58:37;14.60;99.90
17715;DHT22;8977;50.902;4.314;2022-11-15T14:01:05;14.60;99.90
17715;DHT22;8977;50.902;4.314;2022-11-15T14:03:34;14.60;99.90
17715;DHT22;8977;50.902;4.314;2022-11-15T14:06:09;14.60;99.90
17715;DHT22;8977;50.902;4.314;2022-11-15T14:08:39;14.60;99.90
17715;DHT22;8977;50.902;4.314;2022-11-15T14:11:14;14.60;99.90
17715;DHT22;8977;50.902;4.314;2022-11-15T14:13:57;14.60;99.90
17715;DHT22;8977;50.902;4.314;2022-11-15T14:16:33;14.60;99.90
17715;DHT22;8977;50.902;4.314;2022-11-15T14:19:00;14.60;99.90
17715;DHT22;8977;50.902;4.314;2022-11-15T14:21:26;14.60;99.90
17715;DHT22;8977;50.902;4.314;2022-11-15T14:24:13;14.60;99.90
17715;DHT22;8977;50.902;4.314;2022-11-15T14:26:40;14.60;99.90
17715;DHT22;8977;50.902;4.314;2022-11-15T14:29:24;14.60;99.90
17715;DHT22;8977;50.902;4.314;2022-11-15T14:31:51;14.60;99.90
17715;DHT22;8977;50.902;4.314;2022-11-15T14:34:18;14.60;99.90
17715;DHT22;8977;50.902;4.314;2022-11-15T14:36:47;14.50;99.90
17715;DHT22;8977;50.902;4.314;2022-11-15T14:39:15;14.60;99.90
17715;DHT22;8977;50.902;4.314;2022-11-15T14:41:42;14.60;99.90
17715;DHT22;8977;50.902;4.314;2022-11-15T14:44:10;14.50;99.90
17715;DHT22;8977;50.902;4.314;2022-11-15T14:46:38;14.60;99.90
17715;DHT22;8977;50.902;4.314;2022-11-15T14:49:04;14.60;99.90
17715;DHT22;8977;50.902;4.314;2022-11-15T14:51:31;14.50;99.90
17715;DHT22;8977;50.902;4.314;2022-11-15T14:53:59;14.50;99.90
17715;DHT22;8977;50.902;4.314;2022-11-15T14:56:27;14.60;99.90
17715;DHT22;8977;50.902;4.314;2022-11-15T14:58:54;14.50;99.90
17715;DHT22;8977;50.902;4.314;2022-11-15T15:01:24;14.50;99.90
17715;DHT22;8977;50.902;4.314;2022-11-15T15:03:51;14.50;99.90
17715;DHT22;8977;50.902;4.314;2022-11-15T15:06:21;14.50;99.90
17715;DHT22;8977;50.902;4.314;2022-11-15T15:08:48;14.50;99.90
17715;DHT22;8977;50.902;4.314;2022-11-15T15:11:20;14.50;99.90
17715;DHT22;8977;50.902;4.314;2022-11-15T15:13:48;14.50;99.90
17715;DHT22;8977;50.902;4.314;2022-11-15T15:16:15;14.50;99.90
17715;DHT22;8977;50.902;4.314;2022-11-15T15:18:42;14.50;99.90
17715;DHT22;8977;50.902;4.314;2022-11-15T15:21:19;14.50;99.90
17715;DHT22;8977;50.902;4.314;2022-11-15T15:23:47;14.50;99.90
17715;DHT22;8977;50.902;4.314;2022-11-15T15:26:14;14.40;99.90
17715;DHT22;8977;50.902;4.314;2022-11-15T15:28:41;14.40;99.90
17715;DHT22;8977;50.902;4.314;2022-11-15T15:31:09;14.40;99.90
17715;DHT22;8977;50.902;4.314;2022-11-15T15:33:36;14.40;99.90
17715;DHT22;8977;50.902;4.314;2022-11-15T15:36:04;14.40;99.90
17715;DHT22;8977;50.902;4.314;2022-11-15T15:38:31;14.40;99.90
17715;DHT22;8977;50.902;4.314;2022-11-15T15:40:57;14.40;99.90
17715;DHT22;8977;50.902;4.314;2022-11-15T15:43:27;14.40;99.90
17715;DHT22;8977;50.902;4.314;2022-11-15T15:45:54;14.40;99.90
17715;DHT22;8977;50.902;4.314;2022-11-15T15:48:22;14.50;99.90
17715;DHT22;8977;50.902;4.314;2022-11-15T15:50:49;14.40;99.90
17715;DHT22;8977;50.902;4.314;2022-11-15T15:53:16;14.40;99.90
17715;DHT22;8977;50.902;4.314;2022-11-15T15:55:43;14.40;99.90
17715;DHT22;8977;50.902;4.314;2022-11-15T15:58:10;14.40;99.90
17715;DHT22;8977;50.902;4.314;2022-11-15T16:00:37;14.40;99.90
17715;DHT22;8977;50.902;4.314;2022-11-15T16:03:04;14.50;99.90
17715;DHT22;8977;50.902;4.314;2022-11-15T16:05:33;14.40;99.90
17715;DHT22;8977;50.902;4.314;2022-11-15T16:07:59;14.40;99.90
17715;DHT22;8977;50.902;4.314;2022-11-15T16:10:30;14.40;99.90
17715;DHT22;8977;50.902;4.314;2022-11-15T16:12:59;14.40;99.90
17715;DHT22;8977;50.902;4.314;2022-11-15T16:15:27;14.40;99.90
17715;DHT22;8977;50.902;4.314;2022-11-15T16:17:57;14.40;99.90
17715;DHT22;8977;50.902;4.314;2022-11-15T16:20:31;14.40;99.90
17715;DHT22;8977;50.902;4.314;2022-11-15T16:23:00;14.40;99.90